Time;durP1;ratioP1;P1;durP2;ratioP2;P2;SDS_P1;SDS_P2;PMS_P1;PMS_P2;Temp;Humidity;BMP_temperature;BMP_pressure;BME280_temperature;BME280_humidity;BME280_pressure;Samples;Min_cycle;Max_cycle;Signal;HPM_P1;HPM_P2
2021/05/14 00:00:36;;;;;;;2.92;2.33;;;;;;;;;;6258142;28;20105;-73
2021/05/14 00:03:37;;;;;;;2.75;2.30;;;;;;;;;;6259724;28;20545;-73
2021/05/14 00:06:38;;;;;;;6.00;2.47;;;;;;;;;;6253537;28;20114;-72
2021/05/14 00:09:39;;;;;;;4.10;3.00;;;;;;;;;;6256914;28;20055;-73
2021/05/14 00:12:40;;;;;;;3.90;2.95;;;;;;;;;;6256706;28;20175;-72
2021/05/14 00:15:42;;;;;;;4.75;2.72;;;;;;;;;;6260909;28;20073;-73
2021/05/14 00:18:44;;;;;;;3.58;2.90;;;;;;;;;;6258937;28;20040;-73
2021/05/14 00:21:45;;;;;;;4.47;3.60;;;;;;;;;;6260476;28;20151;-73
2021/05/14 00:24:47;;;;;;;4.05;3.05;;;;;;;;;;6259024;28;20138;-73
2021/05/14 00:27:48;;;;;;;3.67;3.35;;;;;;;;;;6257120;28;20041;-73
2021/05/14 00:30:50;;;;;;;5.97;3.30;;;;;;;;;;6262542;28;20595;-73
2021/05/14 00:33:51;;;;;;;6.47;3.60;;;;;;;;;;6258277;28;20128;-74
2021/05/14 00:36:52;;;;;;;5.38;3.88;;;;;;;;;;6262378;28;20190;-73
2021/05/14 00:39:54;;;;;;;5.05;4.20;;;;;;;;;;6252309;28;20045;-73
2021/05/14 00:42:55;;;;;;;5.18;4.25;;;;;;;;;;6268859;28;20143;-73
2021/05/14 00:45:58;;;;;;;5.07;4.50;;;;;;;;;;6257618;28;20187;-73
2021/05/14 00:48:59;;;;;;;8.05;5.20;;;;;;;;;;6265451;28;20098;-73
2021/05/14 00:52:00;;;;;;;5.82;5.22;;;;;;;;;;6276119;28;20045;-72
2021/05/14 00:55:01;;;;;;;6.00;5.10;;;;;;;;;;6258111;28;20033;-73
2021/05/14 00:58:02;;;;;;;7.20;5.50;;;;;;;;;;6256200;28;20051;-73
2021/05/14 01:01:04;;;;;;;6.82;5.38;;;;;;;;;;6254343;28;20650;-73
2021/05/14 01:04:06;;;;;;;5.88;5.32;;;;;;;;;;6256891;28;20045;-73
2021/05/14 01:07:09;;;;;;;6.90;6.20;;;;;;;;;;6255399;28;20040;-73
2021/05/14 01:10:12;;;;;;;6.00;5.32;;;;;;;;;;6270828;28;20124;-72
2021/05/14 01:13:13;;;;;;;6.60;5.90;;;;;;;;;;6267583;28;20036;-72
2021/05/14 01:16:16;;;;;;;6.00;5.40;;;;;;;;;;6267919;28;20125;-76
2021/05/14 01:19:17;;;;;;;8.35;5.32;;;;;;;;;;6259562;28;20061;-73
2021/05/14 01:22:19;;;;;;;6.20;5.60;;;;;;;;;;6255631;28;20202;-73
2021/05/14 01:25:20;;;;;;;7.75;5.65;;;;;;;;;;6256392;28;20041;-74
2021/05/14 01:28:21;;;;;;;6.20;5.60;;;;;;;;;;6256429;28;20397;-74
2021/05/14 01:31:23;;;;;;;6.47;5.88;;;;;;;;;;6254569;28;20102;-73
2021/05/14 01:34:24;;;;;;;8.05;6.00;;;;;;;;;;6249006;28;20424;-74
2021/05/14 01:37:26;;;;;;;15.13;12.30;;;;;;;;;;6258018;28;20120;-74
2021/05/14 01:40:27;;;;;;;47.45;32.63;;;;;;;;;;6254150;28;20128;-74
2021/05/14 01:43:28;;;;;;;35.25;22.55;;;;;;;;;;6252516;28;20033;-73
2021/05/14 01:46:30;;;;;;;9.70;6.57;;;;;;;;;;6251766;28;20510;-73
2021/05/14 01:49:31;;;;;;;7.97;7.05;;;;;;;;;;6260538;28;20535;-73
2021/05/14 01:52:34;;;;;;;8.93;7.03;;;;;;;;;;6260763;28;20045;-73
2021/05/14 01:55:36;;;;;;;7.93;7.03;;;;;;;;;;6259937;28;20527;-74
2021/05/14 01:58:37;;;;;;;9.43;7.55;;;;;;;;;;6263869;28;20037;-74
2021/05/14 02:01:38;;;;;;;9.18;8.02;;;;;;;;;;6256001;28;20117;-74
2021/05/14 02:04:39;;;;;;;10.55;7.88;;;;;;;;;;6267900;28;20041;-74
2021/05/14 02:07:43;;;;;;;9.43;8.48;;;;;;;;;;6254049;28;20045;-73
2021/05/14 02:10:44;;;;;;;8.85;7.95;;;;;;;;;;6259048;28;20041;-74
2021/05/14 02:13:45;;;;;;;9.80;8.80;;;;;;;;;;6260540;28;20053;-74
2021/05/14 02:16:46;;;;;;;9.05;8.15;;;;;;;;;;6254764;28;20148;-73
2021/05/14 02:19:48;;;;;;;10.18;8.70;;;;;;;;;;6260555;28;20124;-73
2021/05/14 02:22:50;;;;;;;10.90;8.98;;;;;;;;;;6249250;28;20071;-73
2021/05/14 02:25:51;;;;;;;10.15;9.02;;;;;;;;;;6256322;28;20060;-73
2021/05/14 02:28:53;;;;;;;10.43;9.32;;;;;;;;;;6256318;28;20037;-72
2021/05/14 02:31:54;;;;;;;11.05;9.90;;;;;;;;;;6255233;28;20037;-73
2021/05/14 02:34:55;;;;;;;14.75;10.48;;;;;;;;;;6260409;28;20053;-73
2021/05/14 02:37:57;;;;;;;11.35;10.25;;;;;;;;;;6259044;28;20072;-73
2021/05/14 02:40:58;;;;;;;11.35;10.13;;;;;;;;;;6274286;28;20482;-75
2021/05/14 02:44:00;;;;;;;13.18;10.52;;;;;;;;;;6267395;28;20130;-76
2021/05/14 02:47:01;;;;;;;12.15;10.65;;;;;;;;;;6252711;28;20125;-73
2021/05/14 02:50:02;;;;;;;12.80;10.85;;;;;;;;;;6271929;28;20048;-74
2021/05/14 02:53:11;;;;;;;12.63;11.10;;;;;;;;;;6270080;28;20041;-73
2021/05/14 02:56:12;;;;;;;12.43;11.13;;;;;;;;;;6268871;28;20168;-75
2021/05/14 02:59:14;;;;;;;16.83;11.80;;;;;;;;;;6269334;28;20040;-67
2021/05/14 03:02:15;;;;;;;14.27;11.35;;;;;;;;;;6277010;28;20161;-73
2021/05/14 03:05:16;;;;;;;15.10;11.45;;;;;;;;;;6277275;28;20050;-75
2021/05/14 03:08:18;;;;;;;13.43;12.02;;;;;;;;;;6278895;28;20128;-75
2021/05/14 03:11:19;;;;;;;13.15;11.63;;;;;;;;;;6268297;28;20060;-73
2021/05/14 03:14:20;;;;;;;14.75;12.77;;;;;;;;;;6275080;28;20041;-72
2021/05/14 03:17:21;;;;;;;13.18;11.77;;;;;;;;;;6267424;28;20041;-73
2021/05/14 03:20:22;;;;;;;13.98;12.25;;;;;;;;;;6272625;28;20045;-72
2021/05/14 03:23:24;;;;;;;15.48;12.23;;;;;;;;;;6271473;28;20053;-73
2021/05/14 03:26:25;;;;;;;18.80;13.45;;;;;;;;;;6276197;28;20531;-73
2021/05/14 03:29:27;;;;;;;16.83;13.23;;;;;;;;;;6267088;28;20052;-73
2021/05/14 03:32:28;;;;;;;17.20;12.60;;;;;;;;;;6267831;28;20045;-75
2021/05/14 03:35:29;;;;;;;15.25;13.57;;;;;;;;;;6269222;28;20057;-72
2021/05/14 03:38:33;;;;;;;17.70;13.90;;;;;;;;;;6270455;28;20133;-76
2021/05/14 03:41:44;;;;;;;15.02;13.10;;;;;;;;;;6267225;28;20033;-72
2021/05/14 03:44:45;;;;;;;17.13;14.05;;;;;;;;;;6270318;28;20127;-75
2021/05/14 03:47:46;;;;;;;19.75;14.90;;;;;;;;;;6269116;28;20145;-73
2021/05/14 03:50:50;;;;;;;20.40;14.38;;;;;;;;;;6265041;28;20046;-74
2021/05/14 03:53:52;;;;;;;19.80;14.75;;;;;;;;;;6274826;28;20503;-73
2021/05/14 03:56:53;;;;;;;19.80;14.43;;;;;;;;;;6261433;28;20060;-75
2021/05/14 03:59:54;;;;;;;20.25;15.27;;;;;;;;;;6262941;28;20039;-68
2021/05/14 04:02:56;;;;;;;22.92;14.52;;;;;;;;;;6267521;28;20044;-79
2021/05/14 04:05:57;;;;;;;15.93;14.10;;;;;;;;;;6268680;28;20037;-72
2021/05/14 04:08:59;;;;;;;19.90;13.95;;;;;;;;;;6264511;28;20063;-71
2021/05/14 04:15:22;;;;;;;18.30;14.38;;;;;;;;;;6253563;28;20037;-71
2021/05/14 04:18:23;;;;;;;15.25;12.65;;;;;;;;;;6265273;28;20456;-71
2021/05/14 04:21:24;;;;;;;14.35;11.15;;;;;;;;;;6263584;28;20048;-72
2021/05/14 04:24:27;;;;;;;12.40;10.23;;;;;;;;;;6247743;28;20043;-71
2021/05/14 04:27:28;;;;;;;11.98;9.05;;;;;;;;;;6250828;28;20124;-71
2021/05/14 04:30:31;;;;;;;10.98;7.40;;;;;;;;;;6253178;28;20045;-71
2021/05/14 04:33:32;;;;;;;10.05;6.45;;;;;;;;;;6257456;28;20472;-71
2021/05/14 04:36:33;;;;;;;9.98;7.43;;;;;;;;;;6266451;28;20029;-72
2021/05/14 04:39:35;;;;;;;10.63;7.45;;;;;;;;;;6255787;28;20139;-72
2021/05/14 04:42:36;;;;;;;13.45;7.43;;;;;;;;;;6256661;28;20048;-72
2021/05/14 04:45:37;;;;;;;9.05;7.45;;;;;;;;;;6253262;28;20079;-72
2021/05/14 04:48:38;;;;;;;10.18;7.57;;;;;;;;;;6255851;28;20045;-72
2021/05/14 04:51:40;;;;;;;11.23;7.78;;;;;;;;;;6252800;28;20045;-71
2021/05/14 04:54:42;;;;;;;10.15;7.55;;;;;;;;;;6251774;28;20529;-72
2021/05/14 04:57:43;;;;;;;9.63;7.10;;;;;;;;;;6251024;28;20056;-72
2021/05/14 05:00:44;;;;;;;9.18;7.85;;;;;;;;;;6254321;28;20136;-72
2021/05/14 05:03:46;;;;;;;9.00;7.72;;;;;;;;;;6263788;28;20044;-71
2021/05/14 05:06:47;;;;;;;10.45;7.90;;;;;;;;;;6250445;28;20045;-71
2021/05/14 05:09:49;;;;;;;10.77;7.60;;;;;;;;;;6261170;28;20559;-71
2021/05/14 05:12:50;;;;;;;13.50;8.73;;;;;;;;;;6253047;28;21278;-71
2021/05/14 05:15:51;;;;;;;10.40;8.52;;;;;;;;;;6252055;28;20485;-71
2021/05/14 05:18:52;;;;;;;10.45;9.02;;;;;;;;;;6261329;28;20124;-71
2021/05/14 05:21:53;;;;;;;13.38;9.93;;;;;;;;;;6258099;28;20041;-71
2021/05/14 05:24:55;;;;;;;12.30;9.73;;;;;;;;;;6248200;28;20060;-72
2021/05/14 05:27:56;;;;;;;13.13;10.55;;;;;;;;;;6260074;28;20063;-71
2021/05/14 05:30:57;;;;;;;14.43;11.48;;;;;;;;;;6256061;28;20036;-71
2021/05/14 05:33:58;;;;;;;13.25;10.57;;;;;;;;;;6248544;28;20048;-71
2021/05/14 05:36:59;;;;;;;14.35;11.45;;;;;;;;;;6257316;28;20171;-72
2021/05/14 05:40:01;;;;;;;15.60;11.45;;;;;;;;;;6254572;28;20136;-73
2021/05/14 05:43:02;;;;;;;13.73;10.95;;;;;;;;;;6253111;28;20552;-71
2021/05/14 05:46:03;;;;;;;12.80;10.75;;;;;;;;;;6257686;28;20072;-71
2021/05/14 05:49:04;;;;;;;13.35;11.90;;;;;;;;;;6262736;28;20445;-71
2021/05/14 05:52:06;;;;;;;14.18;11.65;;;;;;;;;;6254213;28;20128;-71
2021/05/14 05:55:09;;;;;;;14.82;11.23;;;;;;;;;;6277509;28;20041;-71
2021/05/14 05:58:12;;;;;;;13.40;10.10;;;;;;;;;;6260395;28;20045;-71
2021/05/14 06:01:13;;;;;;;15.32;11.57;;;;;;;;;;6251067;28;20091;-71
2021/05/14 06:04:14;;;;;;;16.05;10.82;;;;;;;;;;6283252;28;20479;-72
2021/05/14 06:07:15;;;;;;;14.70;11.63;;;;;;;;;;6271018;28;20527;-72
2021/05/14 06:10:17;;;;;;;14.75;11.90;;;;;;;;;;6275857;28;20123;-73
2021/05/14 06:13:18;;;;;;;12.50;10.50;;;;;;;;;;6268215;28;20045;-72
2021/05/14 06:16:20;;;;;;;13.95;10.75;;;;;;;;;;6279458;28;20151;-73
2021/05/14 06:19:25;;;;;;;11.65;10.32;;;;;;;;;;6292559;28;20061;-73
2021/05/14 06:22:26;;;;;;;13.65;10.10;;;;;;;;;;6270294;28;20041;-73
2021/05/14 06:25:28;;;;;;;12.52;10.27;;;;;;;;;;6263259;28;20048;-73
2021/05/14 06:28:29;;;;;;;13.98;10.73;;;;;;;;;;6271582;28;20131;-73
2021/05/14 06:31:31;;;;;;;13.45;9.70;;;;;;;;;;6265253;28;20131;-73
2021/05/14 06:34:32;;;;;;;11.85;9.70;;;;;;;;;;6260646;28;20072;-74
2021/05/14 06:37:36;;;;;;;13.75;9.68;;;;;;;;;;6262984;28;20156;-73
2021/05/14 06:40:38;;;;;;;12.95;10.43;;;;;;;;;;6264312;28;20161;-74
2021/05/14 06:43:39;;;;;;;14.25;10.68;;;;;;;;;;6266834;28;20051;-73
2021/05/14 06:46:40;;;;;;;16.42;11.25;;;;;;;;;;6261751;28;20114;-74
2021/05/14 06:49:41;;;;;;;15.38;10.52;;;;;;;;;;6262680;28;20550;-73
2021/05/14 06:52:42;;;;;;;13.73;10.85;;;;;;;;;;6276753;28;20140;-74
2021/05/14 06:55:45;;;;;;;15.80;11.93;;;;;;;;;;6271622;28;20061;-74
2021/05/14 06:58:46;;;;;;;17.15;12.57;;;;;;;;;;6267021;28;20466;-73
2021/05/14 07:01:47;;;;;;;15.50;12.13;;;;;;;;;;6272021;28;20113;-73
2021/05/14 07:04:48;;;;;;;13.00;10.02;;;;;;;;;;6279562;28;20045;-73
2021/05/14 07:07:49;;;;;;;13.82;10.50;;;;;;;;;;6274106;28;20051;-73
2021/05/14 07:10:51;;;;;;;12.82;10.70;;;;;;;;;;6258001;28;20049;-73
2021/05/14 07:13:52;;;;;;;12.48;10.15;;;;;;;;;;6259462;28;20144;-73
2021/05/14 07:16:53;;;;;;;12.25;8.77;;;;;;;;;;6259721;28;20060;-74
2021/05/14 07:19:54;;;;;;;10.68;8.70;;;;;;;;;;6259424;28;20556;-74
2021/05/14 07:22:57;;;;;;;11.57;9.25;;;;;;;;;;6262219;28;20168;-74
2021/05/14 07:25:59;;;;;;;12.52;9.00;;;;;;;;;;6264964;28;20119;-74
2021/05/14 07:29:02;;;;;;;14.30;9.50;;;;;;;;;;6267137;28;20093;-74
2021/05/14 07:32:03;;;;;;;11.38;7.88;;;;;;;;;;6260644;28;20057;-73
2021/05/14 07:35:05;;;;;;;8.77;6.68;;;;;;;;;;6269330;28;20109;-74
2021/05/14 07:38:06;;;;;;;11.13;6.57;;;;;;;;;;6256050;28;20388;-74
2021/05/14 07:41:10;;;;;;;7.60;5.53;;;;;;;;;;6257551;28;20073;-73
2021/05/14 07:44:11;;;;;;;9.68;6.38;;;;;;;;;;6265197;28;20064;-73
2021/05/14 07:47:12;;;;;;;8.57;6.45;;;;;;;;;;6256235;28;20057;-75
2021/05/14 07:50:13;;;;;;;9.27;6.20;;;;;;;;;;6264429;28;20049;-72
2021/05/14 07:53:15;;;;;;;8.50;6.13;;;;;;;;;;6254412;28;20168;-72
2021/05/14 07:56:17;;;;;;;9.32;6.25;;;;;;;;;;6268217;28;20124;-72
2021/05/14 07:59:18;;;;;;;8.75;6.30;;;;;;;;;;6269387;28;20040;-72
2021/05/14 08:02:19;;;;;;;8.82;5.93;;;;;;;;;;6258047;28;20052;-72
2021/05/14 08:05:20;;;;;;;8.52;6.20;;;;;;;;;;6256857;28;20105;-73
2021/05/14 08:08:23;;;;;;;8.50;6.03;;;;;;;;;;6261088;28;20118;-73
2021/05/14 08:11:28;;;;;;;10.70;6.20;;;;;;;;;;6257092;28;20696;-73
2021/05/14 08:14:29;;;;;;;15.23;6.40;;;;;;;;;;6256760;28;20128;-72
2021/05/14 08:17:30;;;;;;;15.15;6.70;;;;;;;;;;6256450;28;20084;-73
2021/05/14 08:20:31;;;;;;;11.43;6.22;;;;;;;;;;6274887;28;20134;-73
2021/05/14 08:23:32;;;;;;;10.52;5.47;;;;;;;;;;6254255;28;20048;-72
2021/05/14 08:26:34;;;;;;;8.05;5.88;;;;;;;;;;6258631;28;20055;-72
2021/05/14 08:29:37;;;;;;;11.05;5.70;;;;;;;;;;6255616;28;20659;-73
2021/05/14 08:32:38;;;;;;;8.88;5.43;;;;;;;;;;6255244;28;20094;-73
2021/05/14 08:35:39;;;;;;;7.10;5.45;;;;;;;;;;6267441;28;20094;-71
2021/05/14 08:38:41;;;;;;;7.97;5.68;;;;;;;;;;6247708;28;20136;-72
2021/05/14 08:41:42;;;;;;;6.80;4.38;;;;;;;;;;6250717;28;20049;-73
2021/05/14 08:44:43;;;;;;;8.52;4.95;;;;;;;;;;6258579;28;20509;-74
2021/05/14 08:47:45;;;;;;;10.93;4.82;;;;;;;;;;6266326;28;20064;-71
2021/05/14 08:50:46;;;;;;;9.20;4.82;;;;;;;;;;6261571;28;20475;-73
2021/05/14 08:53:47;;;;;;;7.82;4.80;;;;;;;;;;6259804;28;20045;-70
2021/05/14 08:56:49;;;;;;;7.43;5.00;;;;;;;;;;6267529;28;20243;-73
2021/05/14 08:59:51;;;;;;;10.55;5.07;;;;;;;;;;6261628;28;20136;-72
2021/05/14 09:02:54;;;;;;;7.30;4.18;;;;;;;;;;6275870;28;20070;-73
2021/05/14 09:05:55;;;;;;;9.93;4.72;;;;;;;;;;6255735;28;20068;-72
2021/05/14 09:08:57;;;;;;;9.60;5.38;;;;;;;;;;6263809;28;20067;-72
2021/05/14 09:11:59;;;;;;;37.72;6.40;;;;;;;;;;6258398;28;20053;-72
2021/05/14 09:15:00;;;;;;;18.17;5.40;;;;;;;;;;6253912;28;20140;-76
2021/05/14 09:18:09;;;;;;;52.05;7.30;;;;;;;;;;6255697;28;20125;-72
2021/05/14 09:21:10;;;;;;;36.80;5.35;;;;;;;;;;6254388;28;20049;-71
2021/05/14 09:24:27;;;;;;;7.13;3.55;;;;;;;;;;6259890;28;20065;-75
2021/05/14 09:27:30;;;;;;;9.18;3.10;;;;;;;;;;6254972;28;20044;-71
2021/05/14 09:30:32;;;;;;;7.97;2.97;;;;;;;;;;6252941;28;20049;-72
2021/05/14 09:33:33;;;;;;;9.70;3.40;;;;;;;;;;6252643;28;20468;-73
2021/05/14 09:36:35;;;;;;;7.88;3.13;;;;;;;;;;6256535;28;20048;-73
2021/05/14 09:39:36;;;;;;;6.32;2.75;;;;;;;;;;6261288;28;20101;-72
2021/05/14 09:42:39;;;;;;;7.55;2.67;;;;;;;;;;6267631;28;20049;-72
2021/05/14 09:45:40;;;;;;;7.37;3.10;;;;;;;;;;6267506;28;20049;-75
2021/05/14 09:48:55;;;;;;;7.82;2.90;;;;;;;;;;6270655;28;20841;-74
2021/05/14 09:51:57;;;;;;;4.45;2.67;;;;;;;;;;6264683;28;20402;-74
2021/05/14 09:54:58;;;;;;;6.30;2.78;;;;;;;;;;6263574;28;20732;-75
2021/05/14 09:58:03;;;;;;;5.65;2.75;;;;;;;;;;6286489;28;20734;-75
2021/05/14 10:01:04;;;;;;;8.18;3.10;;;;;;;;;;6266804;28;20057;-76
2021/05/14 10:04:06;;;;;;;8.80;3.63;;;;;;;;;;6258458;28;20056;-74
2021/05/14 10:07:07;;;;;;;6.43;3.00;;;;;;;;;;6255301;28;20040;-74
2021/05/14 10:10:11;;;;;;;7.57;3.08;;;;;;;;;;6257128;28;20060;-74
2021/05/14 10:13:12;;;;;;;7.95;2.85;;;;;;;;;;6258343;28;20961;-75
2021/05/14 10:16:15;;;;;;;10.48;3.20;;;;;;;;;;6273330;28;20128;-73
2021/05/14 10:19:16;;;;;;;8.20;2.97;;;;;;;;;;6262310;28;20077;-75
2021/05/14 10:22:18;;;;;;;9.70;3.15;;;;;;;;;;6252324;28;20131;-75
2021/05/14 10:25:46;;;;;;;8.85;2.92;;;;;;;;;;6257888;28;20049;-75
2021/05/14 10:28:49;;;;;;;6.53;2.70;;;;;;;;;;6260528;28;20044;-74
2021/05/14 10:31:50;;;;;;;6.60;2.72;;;;;;;;;;6262965;28;20068;-76
2021/05/14 10:35:03;;;;;;;6.78;2.60;;;;;;;;;;6256823;28;20984;-74
2021/05/14 10:38:05;;;;;;;6.07;2.63;;;;;;;;;;6276604;28;20049;-73
2021/05/14 10:41:24;;;;;;;6.88;2.72;;;;;;;;;;6289737;28;20105;-74
2021/05/14 10:44:56;;;;;;;6.50;2.40;;;;;;;;;;6261434;28;20072;-73
2021/05/14 10:47:58;;;;;;;5.63;2.33;;;;;;;;;;6256417;28;20446;-74
2021/05/14 10:51:01;;;;;;;6.45;2.17;;;;;;;;;;6254177;28;20048;-74
2021/05/14 10:54:02;;;;;;;5.65;2.17;;;;;;;;;;6259915;28;20071;-74
2021/05/14 10:57:03;;;;;;;7.78;2.47;;;;;;;;;;6258098;28;20041;-70
2021/05/14 11:00:37;;;;;;;9.05;2.00;;;;;;;;;;6280111;28;20110;-71
2021/05/14 11:03:39;;;;;;;41.45;27.55;;;;;;;;;;6248072;28;20045;-71
2021/05/14 11:06:42;;;;;;;10.47;6.20;;;;;;;;;;6254064;28;20071;-70
2021/05/14 11:09:43;;;;;;;29.88;17.85;;;;;;;;;;6261136;28;20061;-71
2021/05/14 11:12:45;;;;;;;8.68;2.72;;;;;;;;;;6261565;28;21142;-72
2021/05/14 11:15:46;;;;;;;6.88;2.00;;;;;;;;;;6257923;28;20171;-72
2021/05/14 11:18:51;;;;;;;6.20;2.25;;;;;;;;;;6255041;28;20585;-73
2021/05/14 11:22:04;;;;;;;4.97;1.95;;;;;;;;;;6254424;28;20136;-73
2021/05/14 11:25:13;;;;;;;3.85;1.30;;;;;;;;;;6252690;28;20061;-73
2021/05/14 11:28:14;;;;;;;3.30;1.38;;;;;;;;;;6256297;28;20435;-71
2021/05/14 11:31:17;;;;;;;7.18;2.00;;;;;;;;;;6257292;28;20052;-71
2021/05/14 11:34:19;;;;;;;7.35;2.08;;;;;;;;;;6263674;28;20051;-71
2021/05/14 11:37:20;;;;;;;5.13;1.70;;;;;;;;;;6253892;28;20234;-71
2021/05/14 11:40:25;;;;;;;4.65;1.35;;;;;;;;;;6269478;28;20069;-72
2021/05/14 11:43:29;;;;;;;4.55;1.58;;;;;;;;;;6257110;28;20479;-72
2021/05/14 11:46:32;;;;;;;4.03;1.33;;;;;;;;;;6259535;28;20434;-72
2021/05/14 11:49:40;;;;;;;2.78;1.00;;;;;;;;;;6257992;28;20100;-72
2021/05/14 11:52:42;;;;;;;3.03;1.20;;;;;;;;;;6257061;28;20057;-72
2021/05/14 11:55:45;;;;;;;4.07;1.08;;;;;;;;;;6260022;28;20049;-73
2021/05/14 11:58:46;;;;;;;3.90;1.48;;;;;;;;;;6264540;28;20385;-69
2021/05/14 12:01:48;;;;;;;5.63;1.83;;;;;;;;;;6270481;28;20545;-71
2021/05/14 12:04:53;;;;;;;3.50;2.70;;;;;;;;;;6283798;28;20143;-73
2021/05/14 12:07:54;;;;;;;139.07;126.72;;;;;;;;;;6256815;28;20040;-73
2021/05/14 12:10:56;;;;;;;10.75;5.15;;;;;;;;;;6253909;28;20085;-76
2021/05/14 12:13:57;;;;;;;3.88;1.52;;;;;;;;;;6255099;28;20510;-75
2021/05/14 12:16:58;;;;;;;5.68;1.42;;;;;;;;;;6271974;28;20127;-76
2021/05/14 12:20:15;;;;;;;4.90;1.92;;;;;;;;;;6266648;28;20117;-77
2021/05/14 12:23:16;;;;;;;3.33;1.67;;;;;;;;;;6260273;28;20072;-76
2021/05/14 12:26:17;;;;;;;3.38;1.50;;;;;;;;;;6267511;28;20068;-77
2021/05/14 12:29:23;;;;;;;3.80;1.85;;;;;;;;;;6264158;28;20064;-76
2021/05/14 12:32:24;;;;;;;4.40;1.90;;;;;;;;;;6262401;28;20589;-75
2021/05/14 12:35:26;;;;;;;5.38;2.38;;;;;;;;;;6259338;28;20115;-75
2021/05/14 12:38:44;;;;;;;4.72;2.72;;;;;;;;;;6273955;28;20136;-75
2021/05/14 12:41:53;;;;;;;5.85;2.13;;;;;;;;;;6263488;28;20057;-76
2021/05/14 12:44:55;;;;;;;3.97;2.10;;;;;;;;;;6264776;28;20064;-77
2021/05/14 12:47:56;;;;;;;7.55;2.22;;;;;;;;;;6265333;28;20048;-76
2021/05/14 12:50:59;;;;;;;4.80;2.45;;;;;;;;;;6268241;28;20242;-76
2021/05/14 12:54:00;;;;;;;5.97;2.45;;;;;;;;;;6267527;28;20036;-76
2021/05/14 12:57:02;;;;;;;4.60;2.20;;;;;;;;;;6269367;28;20159;-76
2021/05/14 13:00:06;;;;;;;5.43;2.10;;;;;;;;;;6266329;28;20407;-77
2021/05/14 13:03:09;;;;;;;4.63;1.98;;;;;;;;;;6278055;28;20039;-76
2021/05/14 13:06:11;;;;;;;;;;;;;;;;;;6274969;28;20036;-74
2021/05/14 13:09:14;;;;;;;4.85;2.28;;;;;;;;;;6270719;28;19916;-77
2021/05/14 13:12:15;;;;;;;6.93;2.50;;;;;;;;;;6268721;28;20360;-78
2021/05/14 13:15:16;;;;;;;5.57;2.70;;;;;;;;;;6266084;28;20392;-72
2021/05/14 13:18:24;;;;;;;7.10;2.50;;;;;;;;;;6257374;28;20154;-77
2021/05/14 13:21:28;;;;;;;5.90;2.17;;;;;;;;;;6265786;28;20045;-77
2021/05/14 13:24:30;;;;;;;9.63;3.42;;;;;;;;;;6268088;28;20040;-77
2021/05/14 13:27:31;;;;;;;4.30;2.40;;;;;;;;;;6264480;28;20190;-72
2021/05/14 13:30:33;;;;;;;6.78;2.97;;;;;;;;;;6266358;28;20638;-81
2021/05/14 13:33:34;;;;;;;7.65;2.80;;;;;;;;;;6273454;28;20211;-81
2021/05/14 13:36:37;;;;;;;5.50;2.97;;;;;;;;;;6276721;28;20123;-80
2021/05/14 13:39:38;;;;;;;5.70;3.38;;;;;;;;;;6273944;28;20040;-77
2021/05/14 13:42:40;;;;;;;5.78;2.95;;;;;;;;;;6273401;28;20044;-80
2021/05/14 13:45:43;;;;;;;7.90;2.47;;;;;;;;;;6285323;28;20051;-81
2021/05/14 13:48:45;;;;;;;9.60;2.65;;;;;;;;;;6306171;28;20051;-81
2021/05/14 13:51:47;;;;;;;6.97;2.45;;;;;;;;;;6303289;28;20063;-81
2021/05/14 13:54:49;;;;;;;6.43;2.85;;;;;;;;;;6301543;28;20076;-80
2021/05/14 13:57:50;;;;;;;6.55;2.92;;;;;;;;;;6307996;28;20463;-81
2021/05/14 14:00:52;;;;;;;8.20;2.65;;;;;;;;;;6298508;28;20068;-81
2021/05/14 14:03:54;;;;;;;8.35;1.90;;;;;;;;;;6292211;28;20044;-75
2021/05/14 14:06:56;;;;;;;8.98;1.80;;;;;;;;;;6283678;28;20048;-76
2021/05/14 14:09:57;;;;;;;6.65;1.83;;;;;;;;;;6279364;28;20036;-74
2021/05/14 14:13:00;;;;;;;4.53;1.70;;;;;;;;;;6281663;28;20127;-76
2021/05/14 14:16:01;;;;;;;3.93;1.77;;;;;;;;;;6277938;28;20056;-74
2021/05/14 14:19:02;;;;;;;3.65;1.70;;;;;;;;;;6297339;28;20032;-74
2021/05/14 14:22:04;;;;;;;8.85;2.10;;;;;;;;;;6279770;28;20115;-75
2021/05/14 14:25:07;;;;;;;7.10;2.50;;;;;;;;;;6286271;28;20624;-77
2021/05/14 14:28:08;;;;;;;3.70;2.10;;;;;;;;;;6271925;28;20073;-75
2021/05/14 14:31:14;;;;;;;5.53;2.25;;;;;;;;;;6285078;28;20040;-73
2021/05/14 14:34:15;;;;;;;5.80;2.03;;;;;;;;;;6264338;28;20117;-71
2021/05/14 14:37:17;;;;;;;6.05;1.98;;;;;;;;;;6262761;28;20515;-70
2021/05/14 14:40:19;;;;;;;5.38;1.60;;;;;;;;;;6276464;28;20133;-70
2021/05/14 14:43:20;;;;;;;4.93;1.45;;;;;;;;;;6257841;28;20562;-72
2021/05/14 14:46:21;;;;;;;4.28;1.42;;;;;;;;;;6252656;28;20129;-72
2021/05/14 14:49:22;;;;;;;5.60;1.23;;;;;;;;;;6255253;28;20475;-72
2021/05/14 14:52:24;;;;;;;4.97;1.30;;;;;;;;;;6257754;28;20060;-71
2021/05/14 14:55:25;;;;;;;3.70;1.10;;;;;;;;;;6248872;28;20515;-70
2021/05/14 14:58:27;;;;;;;3.28;1.15;;;;;;;;;;6256558;28;20057;-72
2021/05/14 15:01:28;;;;;;;3.08;1.27;;;;;;;;;;6256481;28;20049;-69
2021/05/14 15:04:29;;;;;;;2.28;1.10;;;;;;;;;;6263527;28;20170;-70
2021/05/14 15:07:31;;;;;;;4.18;1.00;;;;;;;;;;6253584;28;20223;-71
2021/05/14 15:10:33;;;;;;;5.90;0.90;;;;;;;;;;6275002;28;20145;-70
2021/05/14 15:13:34;;;;;;;6.22;0.85;;;;;;;;;;6268493;28;20123;-70
2021/05/14 15:16:37;;;;;;;1.83;0.95;;;;;;;;;;6261031;28;20151;-73
2021/05/14 15:19:38;;;;;;;4.30;1.27;;;;;;;;;;6275567;28;20192;-74
2021/05/14 15:22:40;;;;;;;2.75;1.10;;;;;;;;;;6280952;28;20441;-69
2021/05/14 15:25:41;;;;;;;4.38;0.93;;;;;;;;;;6262531;28;20037;-72
2021/05/14 15:28:42;;;;;;;4.50;1.15;;;;;;;;;;6257889;28;20044;-71
2021/05/14 15:31:43;;;;;;;4.40;1.00;;;;;;;;;;6266567;28;20123;-71
2021/05/14 15:34:44;;;;;;;2.40;1.02;;;;;;;;;;6267772;28;20139;-72
2021/05/14 15:37:48;;;;;;;4.40;1.20;;;;;;;;;;6252375;28;20044;-73
2021/05/14 15:40:49;;;;;;;3.78;1.88;;;;;;;;;;6262706;28;20048;-72
2021/05/14 15:43:50;;;;;;;5.20;1.92;;;;;;;;;;6275340;28;20075;-73
2021/05/14 15:46:52;;;;;;;2.72;1.40;;;;;;;;;;6251671;28;20139;-72
2021/05/14 15:49:56;;;;;;;3.05;1.10;;;;;;;;;;6255556;28;20127;-72
2021/05/14 15:52:58;;;;;;;3.40;1.20;;;;;;;;;;6236035;28;20522;-71
2021/05/14 15:55:59;;;;;;;3.55;1.50;;;;;;;;;;6248041;28;20049;-72
2021/05/14 15:59:00;;;;;;;4.05;1.67;;;;;;;;;;6256863;28;20131;-71
2021/05/14 16:02:01;;;;;;;2.92;1.30;;;;;;;;;;6257189;28;20091;-72
2021/05/14 16:05:03;;;;;;;3.55;1.52;;;;;;;;;;6251362;28;20147;-69
2021/05/14 16:08:05;;;;;;;3.20;1.50;;;;;;;;;;6255153;28;20062;-70
2021/05/14 16:11:06;;;;;;;4.35;1.83;;;;;;;;;;6252610;28;20139;-74
2021/05/14 16:14:07;;;;;;;3.25;1.48;;;;;;;;;;6252127;28;20048;-72
2021/05/14 16:17:11;;;;;;;2.15;1.15;;;;;;;;;;6251660;28;20547;-75
2021/05/14 16:20:12;;;;;;;3.80;1.50;;;;;;;;;;6256073;28;20048;-73
2021/05/14 16:23:14;;;;;;;1.20;0.50;;;;;;;;;;6259723;28;20170;-73
2021/05/14 16:26:15;;;;;;;2.05;0.70;;;;;;;;;;6261670;28;20041;-72
2021/05/14 16:29:16;;;;;;;1.02;0.52;;;;;;;;;;6260821;28;20125;-72
2021/05/14 16:32:18;;;;;;;0.77;0.40;;;;;;;;;;6254650;28;20037;-71
2021/05/14 16:35:20;;;;;;;1.92;0.43;;;;;;;;;;6252567;28;20410;-72
2021/05/14 16:38:22;;;;;;;0.50;0.32;;;;;;;;;;6256694;28;20055;-72
2021/05/14 16:41:23;;;;;;;1.05;0.32;;;;;;;;;;6253975;28;20045;-72
2021/05/14 16:44:25;;;;;;;3.88;2.28;;;;;;;;;;6249738;28;20124;-73
2021/05/14 16:47:26;;;;;;;5.20;2.42;;;;;;;;;;6254861;28;20173;-72
2021/05/14 16:50:27;;;;;;;3.97;2.47;;;;;;;;;;6255831;28;20033;-72
2021/05/14 16:53:29;;;;;;;5.13;2.03;;;;;;;;;;6256926;28;20071;-71
2021/05/14 16:56:30;;;;;;;2.15;1.10;;;;;;;;;;6266385;28;20589;-72
2021/05/14 16:59:33;;;;;;;4.57;1.40;;;;;;;;;;6259182;28;20048;-73
2021/05/14 17:02:34;;;;;;;3.17;1.20;;;;;;;;;;6258277;28;20527;-71
2021/05/14 17:05:38;;;;;;;3.15;1.20;;;;;;;;;;6261938;28;20052;-73
2021/05/14 17:08:40;;;;;;;3.38;1.70;;;;;;;;;;6255987;28;20087;-74
2021/05/14 17:11:41;;;;;;;3.72;1.40;;;;;;;;;;6254939;28;20073;-71
2021/05/14 17:14:42;;;;;;;5.43;1.40;;;;;;;;;;6253275;28;20091;-73
2021/05/14 17:17:43;;;;;;;3.63;1.50;;;;;;;;;;6264997;28;20048;-71
2021/05/14 17:20:44;;;;;;;2.10;1.10;;;;;;;;;;6258341;28;20151;-72
2021/05/14 17:23:46;;;;;;;2.35;1.10;;;;;;;;;;6246031;28;20056;-71
2021/05/14 17:26:48;;;;;;;4.07;2.05;;;;;;;;;;6260815;28;20049;-71
2021/05/14 17:29:49;;;;;;;5.30;1.35;;;;;;;;;;6266322;28;20131;-71
2021/05/14 17:32:50;;;;;;;2.53;1.30;;;;;;;;;;6256291;28;20040;-72
2021/05/14 17:35:51;;;;;;;2.78;1.40;;;;;;;;;;6260242;28;20120;-72
2021/05/14 17:38:53;;;;;;;2.53;1.48;;;;;;;;;;6257947;28;20128;-72
2021/05/14 17:41:54;;;;;;;3.95;1.25;;;;;;;;;;6272218;28;20464;-73
2021/05/14 17:44:55;;;;;;;2.85;1.67;;;;;;;;;;6269877;28;20040;-71
2021/05/14 17:47:56;;;;;;;3.55;1.63;;;;;;;;;;6268069;28;20141;-71
2021/05/14 17:50:58;;;;;;;2.30;1.70;;;;;;;;;;6276546;28;20132;-71
2021/05/14 17:54:00;;;;;;;2.30;1.70;;;;;;;;;;6270817;28;20235;-72
2021/05/14 17:57:01;;;;;;;3.63;2.25;;;;;;;;;;6259130;28;20056;-72
2021/05/14 18:00:07;;;;;;;5.57;3.47;;;;;;;;;;6259801;28;20586;-71
2021/05/14 18:03:08;;;;;;;2.38;1.75;;;;;;;;;;6269494;28;20319;-72
2021/05/14 18:06:09;;;;;;;3.47;1.50;;;;;;;;;;6273679;28;20411;-72